sensor_id;sensor_type;location;lat;lon;timestamp;P1;durP1;ratioP1;P2;durP2;ratioP2
20910;SDS011;10615;42.702;23.314;2022-08-07T00:00:05;11.55;;;8.57;;
20910;SDS011;10615;42.702;23.314;2022-08-07T00:01:06;12.18;;;8.77;;
20910;SDS011;10615;42.702;23.314;2022-08-07T00:02:07;9.70;;;8.00;;
20910;SDS011;10615;42.702;23.314;2022-08-07T00:03:08;10.00;;;8.50;;
20910;SDS011;10615;42.702;23.314;2022-08-07T00:04:08;8.98;;;7.93;;
20910;SDS011;10615;42.702;23.314;2022-08-07T00:05:09;8.82;;;7.95;;
20910;SDS011;10615;42.702;23.314;2022-08-07T00:06:10;10.50;;;8.27;;
20910;SDS011;10615;42.702;23.314;2022-08-07T00:07:11;9.77;;;7.95;;
20910;SDS011;10615;42.702;23.314;2022-08-07T00:08:11;12.45;;;8.68;;
20910;SDS011;10615;42.702;23.314;2022-08-07T00:09:12;10.70;;;8.00;;
20910;SDS011;10615;42.702;23.314;2022-08-07T00:10:13;10.52;;;8.25;;
20910;SDS011;10615;42.702;23.314;2022-08-07T00:11:14;9.23;;;7.55;;
20910;SDS011;10615;42.702;23.314;2022-08-07T00:12:14;13.30;;;7.53;;
20910;SDS011;10615;42.702;23.314;2022-08-07T00:13:15;9.25;;;7.68;;
20910;SDS011;10615;42.702;23.314;2022-08-07T00:14:17;11.02;;;7.90;;
20910;SDS011;10615;42.702;23.314;2022-08-07T00:15:17;10.80;;;8.18;;
20910;SDS011;10615;42.702;23.314;2022-08-07T00:16:18;9.32;;;7.30;;
20910;SDS011;10615;42.702;23.314;2022-08-07T00:17:19;11.32;;;7.60;;
20910;SDS011;10615;42.702;23.314;2022-08-07T00:18:21;9.20;;;7.93;;
20910;SDS011;10615;42.702;23.314;2022-08-07T00:19:24;10.15;;;8.60;;
20910;SDS011;10615;42.702;23.314;2022-08-07T00:20:27;8.98;;;7.70;;
20910;SDS011;10615;42.702;23.314;2022-08-07T00:21:28;11.95;;;9.00;;
20910;SDS011;10615;42.702;23.314;2022-08-07T00:22:28;10.00;;;8.20;;
20910;SDS011;10615;42.702;23.314;2022-08-07T00:23:33;11.23;;;8.45;;
20910;SDS011;10615;42.702;23.314;2022-08-07T00:24:34;10.23;;;8.60;;
20910;SDS011;10615;42.702;23.314;2022-08-07T00:25:35;15.60;;;12.75;;
20910;SDS011;10615;42.702;23.314;2022-08-07T00:26:36;10.70;;;9.02;;
20910;SDS011;10615;42.702;23.314;2022-08-07T00:27:37;13.50;;;11.02;;
20910;SDS011;10615;42.702;23.314;2022-08-07T00:28:38;12.63;;;9.45;;
20910;SDS011;10615;42.702;23.314;2022-08-07T00:29:38;11.15;;;8.85;;
20910;SDS011;10615;42.702;23.314;2022-08-07T00:30:39;16.30;;;9.45;;
20910;SDS011;10615;42.702;23.314;2022-08-07T00:31:40;10.93;;;8.73;;
20910;SDS011;10615;42.702;23.314;2022-08-07T00:32:40;11.60;;;9.07;;
20910;SDS011;10615;42.702;23.314;2022-08-07T00:33:41;12.93;;;8.57;;
20910;SDS011;10615;42.702;23.314;2022-08-07T00:34:42;14.10;;;9.15;;
20910;SDS011;10615;42.702;23.314;2022-08-07T00:35:42;10.05;;;8.93;;
20910;SDS011;10615;42.702;23.314;2022-08-07T00:36:43;12.68;;;8.38;;
20910;SDS011;10615;42.702;23.314;2022-08-07T00:37:44;11.52;;;8.40;;
20910;SDS011;10615;42.702;23.314;2022-08-07T00:38:45;13.13;;;8.50;;
20910;SDS011;10615;42.702;23.314;2022-08-07T00:39:46;11.00;;;8.93;;
20910;SDS011;10615;42.702;23.314;2022-08-07T00:40:46;10.68;;;8.70;;
20910;SDS011;10615;42.702;23.314;2022-08-07T00:41:48;9.98;;;8.30;;
20910;SDS011;10615;42.702;23.314;2022-08-07T00:42:55;11.88;;;8.35;;
20910;SDS011;10615;42.702;23.314;2022-08-07T00:43:55;10.48;;;8.82;;
20910;SDS011;10615;42.702;23.314;2022-08-07T00:44:56;11.50;;;8.32;;
20910;SDS011;10615;42.702;23.314;2022-08-07T00:45:58;9.73;;;8.57;;
20910;SDS011;10615;42.702;23.314;2022-08-07T00:47:00;9.27;;;8.20;;
20910;SDS011;10615;42.702;23.314;2022-08-07T00:48:02;12.50;;;8.30;;
20910;SDS011;10615;42.702;23.314;2022-08-07T00:49:02;12.45;;;8.93;;
20910;SDS011;10615;42.702;23.314;2022-08-07T00:50:04;11.88;;;8.48;;
20910;SDS011;10615;42.702;23.314;2022-08-07T00:51:05;10.77;;;8.70;;
20910;SDS011;10615;42.702;23.314;2022-08-07T00:52:07;10.68;;;8.38;;
20910;SDS011;10615;42.702;23.314;2022-08-07T00:53:08;10.52;;;8.30;;
20910;SDS011;10615;42.702;23.314;2022-08-07T00:54:09;11.10;;;8.13;;
20910;SDS011;10615;42.702;23.314;2022-08-07T00:55:13;9.73;;;8.30;;
20910;SDS011;10615;42.702;23.314;2022-08-07T00:56:14;8.88;;;7.82;;
20910;SDS011;10615;42.702;23.314;2022-08-07T00:57:15;9.73;;;7.57;;
20910;SDS011;10615;42.702;23.314;2022-08-07T00:58:17;11.02;;;8.32;;
20910;SDS011;10615;42.702;23.314;2022-08-07T00:59:19;9.10;;;7.68;;
20910;SDS011;10615;42.702;23.314;2022-08-07T01:00:20;10.93;;;8.10;;
20910;SDS011;10615;42.702;23.314;2022-08-07T01:01:21;10.82;;;8.27;;
20910;SDS011;10615;42.702;23.314;2022-08-07T01:02:22;10.00;;;7.68;;
20910;SDS011;10615;42.702;23.314;2022-08-07T01:03:24;9.68;;;7.35;;
20910;SDS011;10615;42.702;23.314;2022-08-07T01:04:25;10.95;;;8.00;;
20910;SDS011;10615;42.702;23.314;2022-08-07T01:05:26;8.50;;;7.63;;
20910;SDS011;10615;42.702;23.314;2022-08-07T01:06:28;10.52;;;8.27;;
20910;SDS011;10615;42.702;23.314;2022-08-07T01:07:29;8.48;;;7.63;;
20910;SDS011;10615;42.702;23.314;2022-08-07T01:08:30;8.25;;;7.47;;
20910;SDS011;10615;42.702;23.314;2022-08-07T01:09:31;9.50;;;7.47;;
20910;SDS011;10615;42.702;23.314;2022-08-07T01:10:32;8.07;;;7.28;;
20910;SDS011;10615;42.702;23.314;2022-08-07T01:11:33;8.43;;;7.45;;
20910;SDS011;10615;42.702;23.314;2022-08-07T01:12:34;8.27;;;7.20;;
20910;SDS011;10615;42.702;23.314;2022-08-07T01:13:36;9.23;;;7.18;;
20910;SDS011;10615;42.702;23.314;2022-08-07T01:14:37;9.52;;;6.82;;
20910;SDS011;10615;42.702;23.314;2022-08-07T01:15:38;8.63;;;7.30;;
20910;SDS011;10615;42.702;23.314;2022-08-07T01:16:41;9.20;;;7.75;;
20910;SDS011;10615;42.702;23.314;2022-08-07T01:17:42;9.30;;;7.38;;
20910;SDS011;10615;42.702;23.314;2022-08-07T01:18:43;9.48;;;7.22;;
20910;SDS011;10615;42.702;23.314;2022-08-07T01:19:44;9.20;;;7.40;;
20910;SDS011;10615;42.702;23.314;2022-08-07T01:20:45;9.00;;;7.93;;
20910;SDS011;10615;42.702;23.314;2022-08-07T01:21:52;8.45;;;7.72;;
20910;SDS011;10615;42.702;23.314;2022-08-07T01:22:54;8.60;;;7.65;;
20910;SDS011;10615;42.702;23.314;2022-08-07T01:23:54;8.52;;;7.47;;
20910;SDS011;10615;42.702;23.314;2022-08-07T01:24:56;10.20;;;7.30;;
20910;SDS011;10615;42.702;23.314;2022-08-07T01:25:58;7.85;;;6.97;;
20910;SDS011;10615;42.702;23.314;2022-08-07T01:26:59;8.43;;;7.63;;
20910;SDS011;10615;42.702;23.314;2022-08-07T01:28:00;10.57;;;7.70;;
20910;SDS011;10615;42.702;23.314;2022-08-07T01:29:02;7.47;;;6.78;;
20910;SDS011;10615;42.702;23.314;2022-08-07T01:30:04;9.38;;;7.75;;
20910;SDS011;10615;42.702;23.314;2022-08-07T01:31:05;10.68;;;6.82;;
20910;SDS011;10615;42.702;23.314;2022-08-07T01:32:07;10.00;;;7.45;;
20910;SDS011;10615;42.702;23.314;2022-08-07T01:33:07;8.07;;;7.22;;
20910;SDS011;10615;42.702;23.314;2022-08-07T01:34:08;7.57;;;6.88;;
20910;SDS011;10615;42.702;23.314;2022-08-07T01:35:10;8.07;;;7.18;;
20910;SDS011;10615;42.702;23.314;2022-08-07T01:36:11;8.05;;;6.57;;
20910;SDS011;10615;42.702;23.314;2022-08-07T01:37:12;9.45;;;8.00;;
20910;SDS011;10615;42.702;23.314;2022-08-07T01:38:16;9.07;;;6.78;;
20910;SDS011;10615;42.702;23.314;2022-08-07T01:39:17;7.80;;;7.00;;
20910;SDS011;10615;42.702;23.314;2022-08-07T01:40:18;8.15;;;7.32;;
20910;SDS011;10615;42.702;23.314;2022-08-07T01:41:21;9.48;;;6.95;;
20910;SDS011;10615;42.702;23.314;2022-08-07T01:42:22;9.45;;;7.13;;
20910;SDS011;10615;42.702;23.314;2022-08-07T01:43:24;7.80;;;7.10;;
20910;SDS011;10615;42.702;23.314;2022-08-07T01:44:26;9.05;;;7.00;;
20910;SDS011;10615;42.702;23.314;2022-08-07T01:45:27;9.18;;;6.90;;
20910;SDS011;10615;42.702;23.314;2022-08-07T01:46:28;9.55;;;7.47;;
20910;SDS011;10615;42.702;23.314;2022-08-07T01:47:29;8.07;;;7.30;;
20910;SDS011;10615;42.702;23.314;2022-08-07T01:48:30;9.43;;;7.10;;
20910;SDS011;10615;42.702;23.314;2022-08-07T01:49:31;8.40;;;7.20;;
20910;SDS011;10615;42.702;23.314;2022-08-07T01:50:32;9.77;;;7.07;;
20910;SDS011;10615;42.702;23.314;2022-08-07T01:51:35;8.52;;;7.68;;
20910;SDS011;10615;42.702;23.314;2022-08-07T01:52:36;9.77;;;7.20;;
20910;SDS011;10615;42.702;23.314;2022-08-07T01:53:41;7.90;;;7.20;;
20910;SDS011;10615;42.702;23.314;2022-08-07T01:54:46;10.25;;;7.50;;
20910;SDS011;10615;42.702;23.314;2022-08-07T01:55:49;8.80;;;7.93;;
20910;SDS011;10615;42.702;23.314;2022-08-07T01:57:00;10.18;;;8.35;;
20910;SDS011;10615;42.702;23.314;2022-08-07T01:58:22;9.02;;;7.35;;
20910;SDS011;10615;42.702;23.314;2022-08-07T01:59:28;9.10;;;7.80;;
20910;SDS011;10615;42.702;23.314;2022-08-07T02:00:56;10.80;;;8.40;;
20910;SDS011;10615;42.702;23.314;2022-08-07T02:02:07;11.13;;;8.35;;
20910;SDS011;10615;42.702;23.314;2022-08-07T02:03:13;8.85;;;8.05;;
20910;SDS011;10615;42.702;23.314;2022-08-07T02:04:16;9.60;;;8.38;;
20910;SDS011;10615;42.702;23.314;2022-08-07T02:05:24;13.57;;;8.63;;
20910;SDS011;10615;42.702;23.314;2022-08-07T02:06:30;10.07;;;8.07;;
20910;SDS011;10615;42.702;23.314;2022-08-07T02:07:51;9.75;;;8.75;;
20910;SDS011;10615;42.702;23.314;2022-08-07T02:08:53;10.30;;;8.82;;
20910;SDS011;10615;42.702;23.314;2022-08-07T02:09:55;10.02;;;8.57;;
20910;SDS011;10615;42.702;23.314;2022-08-07T02:10:57;8.40;;;7.63;;
20910;SDS011;10615;42.702;23.314;2022-08-07T02:12:00;10.27;;;7.70;;
20910;SDS011;10615;42.702;23.314;2022-08-07T02:13:16;7.80;;;7.03;;
20910;SDS011;10615;42.702;23.314;2022-08-07T02:14:19;8.77;;;7.97;;
20910;SDS011;10615;42.702;23.314;2022-08-07T02:15:21;16.27;;;7.82;;
20910;SDS011;10615;42.702;23.314;2022-08-07T02:16:24;7.90;;;6.85;;
20910;SDS011;10615;42.702;23.314;2022-08-07T02:17:25;7.63;;;6.93;;
20910;SDS011;10615;42.702;23.314;2022-08-07T02:18:27;9.38;;;7.30;;
20910;SDS011;10615;42.702;23.314;2022-08-07T02:19:30;7.50;;;6.57;;
20910;SDS011;10615;42.702;23.314;2022-08-07T02:20:32;9.00;;;6.35;;
20910;SDS011;10615;42.702;23.314;2022-08-07T02:21:34;7.20;;;6.50;;
20910;SDS011;10615;42.702;23.314;2022-08-07T02:22:37;6.93;;;6.32;;
20910;SDS011;10615;42.702;23.314;2022-08-07T02:23:40;9.43;;;6.38;;
20910;SDS011;10615;42.702;23.314;2022-08-07T02:24:43;8.23;;;6.60;;
20910;SDS011;10615;42.702;23.314;2022-08-07T02:25:44;8.98;;;6.88;;
20910;SDS011;10615;42.702;23.314;2022-08-07T02:26:46;8.77;;;6.57;;
20910;SDS011;10615;42.702;23.314;2022-08-07T02:27:48;10.13;;;7.05;;
20910;SDS011;10615;42.702;23.314;2022-08-07T02:28:50;10.20;;;7.05;;
20910;SDS011;10615;42.702;23.314;2022-08-07T02:29:52;13.13;;;7.60;;
20910;SDS011;10615;42.702;23.314;2022-08-07T02:30:55;10.13;;;6.85;;
20910;SDS011;10615;42.702;23.314;2022-08-07T02:31:58;9.25;;;6.70;;
20910;SDS011;10615;42.702;23.314;2022-08-07T02:33:01;8.38;;;7.53;;
20910;SDS011;10615;42.702;23.314;2022-08-07T02:34:03;11.73;;;7.47;;
20910;SDS011;10615;42.702;23.314;2022-08-07T02:35:05;8.25;;;7.45;;
20910;SDS011;10615;42.702;23.314;2022-08-07T02:36:07;7.88;;;7.07;;
20910;SDS011;10615;42.702;23.314;2022-08-07T02:37:08;9.23;;;7.60;;
20910;SDS011;10615;42.702;23.314;2022-08-07T02:38:10;8.18;;;7.03;;
20910;SDS011;10615;42.702;23.314;2022-08-07T02:39:13;11.00;;;7.45;;
20910;SDS011;10615;42.702;23.314;2022-08-07T02:40:15;11.07;;;8.05;;
20910;SDS011;10615;42.702;23.314;2022-08-07T02:41:16;8.77;;;7.88;;
20910;SDS011;10615;42.702;23.314;2022-08-07T02:42:17;9.23;;;7.63;;
20910;SDS011;10615;42.702;23.314;2022-08-07T02:43:19;11.38;;;7.78;;
20910;SDS011;10615;42.702;23.314;2022-08-07T02:44:21;10.48;;;7.82;;
20910;SDS011;10615;42.702;23.314;2022-08-07T02:45:24;8.90;;;8.00;;
20910;SDS011;10615;42.702;23.314;2022-08-07T02:46:26;8.48;;;7.63;;
20910;SDS011;10615;42.702;23.314;2022-08-07T02:47:29;8.73;;;7.82;;
20910;SDS011;10615;42.702;23.314;2022-08-07T02:48:30;8.48;;;7.53;;
20910;SDS011;10615;42.702;23.314;2022-08-07T02:49:31;10.13;;;7.53;;
20910;SDS011;10615;42.702;23.314;2022-08-07T02:50:33;9.25;;;7.75;;
20910;SDS011;10615;42.702;23.314;2022-08-07T02:51:35;8.05;;;7.25;;
20910;SDS011;10615;42.702;23.314;2022-08-07T02:52:38;10.57;;;7.97;;
20910;SDS011;10615;42.702;23.314;2022-08-07T02:53:43;10.77;;;8.10;;
20910;SDS011;10615;42.702;23.314;2022-08-07T02:54:49;9.00;;;7.38;;
20910;SDS011;10615;42.702;23.314;2022-08-07T02:55:52;7.97;;;7.18;;
20910;SDS011;10615;42.702;23.314;2022-08-07T02:56:55;8.15;;;7.35;;
20910;SDS011;10615;42.702;23.314;2022-08-07T02:58:02;7.72;;;6.97;;
20910;SDS011;10615;42.702;23.314;2022-08-07T02:59:07;10.55;;;7.55;;
20910;SDS011;10615;42.702;23.314;2022-08-07T03:00:10;10.18;;;7.60;;
20910;SDS011;10615;42.702;23.314;2022-08-07T03:01:12;7.70;;;6.97;;
20910;SDS011;10615;42.702;23.314;2022-08-07T03:02:13;8.10;;;7.32;;
20910;SDS011;10615;42.702;23.314;2022-08-07T03:03:15;8.13;;;7.30;;
20910;SDS011;10615;42.702;23.314;2022-08-07T03:04:18;9.07;;;7.22;;
20910;SDS011;10615;42.702;23.314;2022-08-07T03:05:22;8.00;;;7.30;;
20910;SDS011;10615;42.702;23.314;2022-08-07T03:06:23;9.15;;;7.40;;
20910;SDS011;10615;42.702;23.314;2022-08-07T03:07:27;8.95;;;7.30;;
20910;SDS011;10615;42.702;23.314;2022-08-07T03:08:28;7.82;;;7.13;;
20910;SDS011;10615;42.702;23.314;2022-08-07T03:09:30;8.57;;;6.30;;
20910;SDS011;10615;42.702;23.314;2022-08-07T03:10:31;7.85;;;6.85;;
20910;SDS011;10615;42.702;23.314;2022-08-07T03:11:33;13.70;;;7.13;;
20910;SDS011;10615;42.702;23.314;2022-08-07T03:12:35;7.78;;;6.72;;
20910;SDS011;10615;42.702;23.314;2022-08-07T03:13:37;8.68;;;6.97;;
20910;SDS011;10615;42.702;23.314;2022-08-07T03:14:38;9.27;;;6.88;;
20910;SDS011;10615;42.702;23.314;2022-08-07T03:15:39;7.90;;;7.10;;
20910;SDS011;10615;42.702;23.314;2022-08-07T03:16:41;7.97;;;7.03;;
20910;SDS011;10615;42.702;23.314;2022-08-07T03:17:42;7.80;;;6.97;;
20910;SDS011;10615;42.702;23.314;2022-08-07T03:18:43;8.13;;;7.40;;
20910;SDS011;10615;42.702;23.314;2022-08-07T03:19:44;9.95;;;7.05;;
20910;SDS011;10615;42.702;23.314;2022-08-07T03:20:47;7.78;;;7.03;;
20910;SDS011;10615;42.702;23.314;2022-08-07T03:21:48;9.57;;;7.20;;
20910;SDS011;10615;42.702;23.314;2022-08-07T03:22:51;7.30;;;6.65;;
20910;SDS011;10615;42.702;23.314;2022-08-07T03:23:54;7.75;;;7.05;;
20910;SDS011;10615;42.702;23.314;2022-08-07T03:24:57;11.90;;;7.68;;
20910;SDS011;10615;42.702;23.314;2022-08-07T03:25:59;8.55;;;7.75;;
20910;SDS011;10615;42.702;23.314;2022-08-07T03:27:02;9.32;;;8.30;;
20910;SDS011;10615;42.702;23.314;2022-08-07T03:28:06;10.20;;;8.15;;
20910;SDS011;10615;42.702;23.314;2022-08-07T03:29:11;8.80;;;7.68;;
20910;SDS011;10615;42.702;23.314;2022-08-07T03:30:13;9.75;;;7.70;;
20910;SDS011;10615;42.702;23.314;2022-08-07T03:31:14;8.05;;;7.30;;
20910;SDS011;10615;42.702;23.314;2022-08-07T03:32:21;9.05;;;8.15;;
20910;SDS011;10615;42.702;23.314;2022-08-07T03:33:24;9.52;;;8.20;;
20910;SDS011;10615;42.702;23.314;2022-08-07T03:34:26;9.25;;;8.27;;
20910;SDS011;10615;42.702;23.314;2022-08-07T03:35:28;12.27;;;7.97;;
20910;SDS011;10615;42.702;23.314;2022-08-07T03:36:29;10.60;;;7.90;;
20910;SDS011;10615;42.702;23.314;2022-08-07T03:37:33;8.90;;;8.00;;
20910;SDS011;10615;42.702;23.314;2022-08-07T03:38:36;8.48;;;7.63;;
20910;SDS011;10615;42.702;23.314;2022-08-07T03:39:38;8.93;;;8.02;;
20910;SDS011;10615;42.702;23.314;2022-08-07T03:40:40;9.32;;;7.65;;
20910;SDS011;10615;42.702;23.314;2022-08-07T03:41:41;8.45;;;7.55;;
20910;SDS011;10615;42.702;23.314;2022-08-07T03:42:42;10.93;;;7.82;;
20910;SDS011;10615;42.702;23.314;2022-08-07T03:43:43;9.15;;;8.10;;
20910;SDS011;10615;42.702;23.314;2022-08-07T03:44:44;8.80;;;7.05;;
20910;SDS011;10615;42.702;23.314;2022-08-07T03:45:46;8.65;;;7.38;;
20910;SDS011;10615;42.702;23.314;2022-08-07T03:46:47;10.32;;;8.07;;
20910;SDS011;10615;42.702;23.314;2022-08-07T03:47:48;7.90;;;7.10;;
20910;SDS011;10615;42.702;23.314;2022-08-07T03:48:50;9.18;;;7.68;;
20910;SDS011;10615;42.702;23.314;2022-08-07T03:49:52;8.70;;;7.38;;
20910;SDS011;10615;42.702;23.314;2022-08-07T03:50:54;9.20;;;7.35;;
20910;SDS011;10615;42.702;23.314;2022-08-07T03:51:56;11.15;;;7.47;;
20910;SDS011;10615;42.702;23.314;2022-08-07T03:52:58;8.88;;;6.75;;
20910;SDS011;10615;42.702;23.314;2022-08-07T03:54:00;7.75;;;6.68;;
20910;SDS011;10615;42.702;23.314;2022-08-07T03:55:02;7.13;;;6.50;;
20910;SDS011;10615;42.702;23.314;2022-08-07T03:56:03;7.97;;;7.18;;
20910;SDS011;10615;42.702;23.314;2022-08-07T03:57:05;7.53;;;6.40;;
20910;SDS011;10615;42.702;23.314;2022-08-07T03:58:06;7.32;;;6.63;;
20910;SDS011;10615;42.702;23.314;2022-08-07T03:59:08;6.95;;;6.25;;
20910;SDS011;10615;42.702;23.314;2022-08-07T04:00:12;6.85;;;6.15;;
20910;SDS011;10615;42.702;23.314;2022-08-07T04:01:13;9.05;;;6.38;;
20910;SDS011;10615;42.702;23.314;2022-08-07T04:02:15;7.53;;;6.40;;
20910;SDS011;10615;42.702;23.314;2022-08-07T04:03:15;7.35;;;6.65;;
20910;SDS011;10615;42.702;23.314;2022-08-07T04:04:17;9.27;;;7.22;;
20910;SDS011;10615;42.702;23.314;2022-08-07T04:05:19;7.85;;;6.15;;
20910;SDS011;10615;42.702;23.314;2022-08-07T04:06:21;7.35;;;5.57;;
20910;SDS011;10615;42.702;23.314;2022-08-07T04:07:22;6.68;;;5.43;;
20910;SDS011;10615;42.702;23.314;2022-08-07T04:08:23;6.28;;;5.78;;
20910;SDS011;10615;42.702;23.314;2022-08-07T04:09:24;6.22;;;5.30;;
20910;SDS011;10615;42.702;23.314;2022-08-07T04:10:26;10.40;;;6.10;;
20910;SDS011;10615;42.702;23.314;2022-08-07T04:11:27;6.68;;;5.78;;
20910;SDS011;10615;42.702;23.314;2022-08-07T04:12:28;6.22;;;5.45;;
20910;SDS011;10615;42.702;23.314;2022-08-07T04:13:30;5.95;;;5.35;;
20910;SDS011;10615;42.702;23.314;2022-08-07T04:14:33;6.03;;;5.53;;
20910;SDS011;10615;42.702;23.314;2022-08-07T04:15:34;6.40;;;5.90;;
20910;SDS011;10615;42.702;23.314;2022-08-07T04:16:35;5.90;;;5.40;;
20910;SDS011;10615;42.702;23.314;2022-08-07T04:17:36;6.25;;;5.70;;
20910;SDS011;10615;42.702;23.314;2022-08-07T04:18:36;6.35;;;5.75;;
20910;SDS011;10615;42.702;23.314;2022-08-07T04:19:40;7.00;;;5.50;;
20910;SDS011;10615;42.702;23.314;2022-08-07T04:20:41;5.88;;;5.32;;
20910;SDS011;10615;42.702;23.314;2022-08-07T04:21:42;6.90;;;5.65;;
20910;SDS011;10615;42.702;23.314;2022-08-07T04:22:43;5.68;;;5.15;;
20910;SDS011;10615;42.702;23.314;2022-08-07T04:23:45;6.68;;;5.90;;
20910;SDS011;10615;42.702;23.314;2022-08-07T04:24:46;6.00;;;5.50;;
20910;SDS011;10615;42.702;23.314;2022-08-07T04:25:48;6.03;;;5.28;;
20910;SDS011;10615;42.702;23.314;2022-08-07T04:26:51;6.00;;;5.47;;
20910;SDS011;10615;42.702;23.314;2022-08-07T04:27:52;6.45;;;5.43;;
20910;SDS011;10615;42.702;23.314;2022-08-07T04:28:53;6.78;;;5.95;;
20910;SDS011;10615;42.702;23.314;2022-08-07T04:29:54;5.78;;;5.28;;
20910;SDS011;10615;42.702;23.314;2022-08-07T04:30:54;8.60;;;5.93;;
20910;SDS011;10615;42.702;23.314;2022-08-07T04:31:55;6.40;;;5.90;;
20910;SDS011;10615;42.702;23.314;2022-08-07T04:32:56;6.70;;;6.10;;
20910;SDS011;10615;42.702;23.314;2022-08-07T04:33:58;6.72;;;5.85;;
20910;SDS011;10615;42.702;23.314;2022-08-07T04:35:04;7.90;;;5.90;;
20910;SDS011;10615;42.702;23.314;2022-08-07T04:36:06;6.90;;;5.53;;
20910;SDS011;10615;42.702;23.314;2022-08-07T04:37:07;7.18;;;5.57;;
20910;SDS011;10615;42.702;23.314;2022-08-07T04:38:08;7.97;;;6.53;;
20910;SDS011;10615;42.702;23.314;2022-08-07T04:39:09;6.88;;;6.25;;
20910;SDS011;10615;42.702;23.314;2022-08-07T04:40:10;6.35;;;5.80;;
20910;SDS011;10615;42.702;23.314;2022-08-07T04:41:11;9.07;;;6.43;;
20910;SDS011;10615;42.702;23.314;2022-08-07T04:42:12;7.10;;;6.45;;
20910;SDS011;10615;42.702;23.314;2022-08-07T04:43:13;6.65;;;6.03;;
20910;SDS011;10615;42.702;23.314;2022-08-07T04:44:17;7.05;;;6.43;;
20910;SDS011;10615;42.702;23.314;2022-08-07T04:45:18;7.38;;;6.70;;
20910;SDS011;10615;42.702;23.314;2022-08-07T04:48:58;9.50;;;8.60;;
20910;SDS011;10615;42.702;23.314;2022-08-07T04:50:12;10.00;;;7.55;;
20910;SDS011;10615;42.702;23.314;2022-08-07T04:52:45;8.48;;;6.90;;
20910;SDS011;10615;42.702;23.314;2022-08-07T04:55:02;7.70;;;6.60;;
20910;SDS011;10615;42.702;23.314;2022-08-07T04:57:41;7.70;;;6.45;;
20910;SDS011;10615;42.702;23.314;2022-08-07T04:58:53;6.88;;;6.18;;
20910;SDS011;10615;42.702;23.314;2022-08-07T05:00:06;6.28;;;5.78;;
20910;SDS011;10615;42.702;23.314;2022-08-07T05:01:16;7.03;;;6.00;;
20910;SDS011;10615;42.702;23.314;2022-08-07T05:04:13;6.25;;;5.75;;
20910;SDS011;10615;42.702;23.314;2022-08-07T05:08:13;9.60;;;5.85;;
20910;SDS011;10615;42.702;23.314;2022-08-07T05:09:27;6.35;;;5.75;;
20910;SDS011;10615;42.702;23.314;2022-08-07T05:10:42;11.68;;;6.28;;
20910;SDS011;10615;42.702;23.314;2022-08-07T05:11:47;7.15;;;6.40;;
20910;SDS011;10615;42.702;23.314;2022-08-07T05:12:51;8.55;;;6.25;;
20910;SDS011;10615;42.702;23.314;2022-08-07T05:13:58;8.38;;;6.78;;
20910;SDS011;10615;42.702;23.314;2022-08-07T05:15:15;7.00;;;6.22;;
20910;SDS011;10615;42.702;23.314;2022-08-07T05:16:21;6.68;;;5.90;;
20910;SDS011;10615;42.702;23.314;2022-08-07T05:17:23;5.97;;;5.53;;
20910;SDS011;10615;42.702;23.314;2022-08-07T05:18:28;6.05;;;5.30;;
20910;SDS011;10615;42.702;23.314;2022-08-07T05:19:33;7.78;;;5.93;;
20910;SDS011;10615;42.702;23.314;2022-08-07T05:20:41;18.42;;;5.95;;
20910;SDS011;10615;42.702;23.314;2022-08-07T05:21:51;6.75;;;5.22;;
20910;SDS011;10615;42.702;23.314;2022-08-07T05:22:55;7.15;;;5.30;;
20910;SDS011;10615;42.702;23.314;2022-08-07T05:24:00;6.28;;;5.50;;
20910;SDS011;10615;42.702;23.314;2022-08-07T05:25:04;6.57;;;5.13;;
20910;SDS011;10615;42.702;23.314;2022-08-07T05:26:08;6.68;;;5.40;;
20910;SDS011;10615;42.702;23.314;2022-08-07T05:27:12;5.60;;;5.10;;
20910;SDS011;10615;42.702;23.314;2022-08-07T05:28:15;5.63;;;5.13;;
20910;SDS011;10615;42.702;23.314;2022-08-07T05:29:17;5.30;;;4.90;;
20910;SDS011;10615;42.702;23.314;2022-08-07T05:30:20;6.05;;;5.50;;
20910;SDS011;10615;42.702;23.314;2022-08-07T05:31:24;7.13;;;5.45;;
20910;SDS011;10615;42.702;23.314;2022-08-07T05:32:27;5.72;;;5.18;;
20910;SDS011;10615;42.702;23.314;2022-08-07T05:33:28;6.22;;;5.63;;
20910;SDS011;10615;42.702;23.314;2022-08-07T05:34:30;6.00;;;5.20;;
20910;SDS011;10615;42.702;23.314;2022-08-07T05:35:31;7.38;;;5.18;;
20910;SDS011;10615;42.702;23.314;2022-08-07T05:36:33;5.60;;;5.10;;
20910;SDS011;10615;42.702;23.314;2022-08-07T05:37:35;5.50;;;5.10;;
20910;SDS011;10615;42.702;23.314;2022-08-07T05:38:38;6.05;;;5.40;;
20910;SDS011;10615;42.702;23.314;2022-08-07T05:39:40;7.32;;;5.25;;
20910;SDS011;10615;42.702;23.314;2022-08-07T05:40:42;6.30;;;5.60;;
20910;SDS011;10615;42.702;23.314;2022-08-07T05:41:43;6.30;;;5.15;;
20910;SDS011;10615;42.702;23.314;2022-08-07T05:42:46;7.47;;;5.18;;
20910;SDS011;10615;42.702;23.314;2022-08-07T05:43:49;5.53;;;4.90;;
20910;SDS011;10615;42.702;23.314;2022-08-07T05:44:51;6.03;;;4.93;;
20910;SDS011;10615;42.702;23.314;2022-08-07T05:45:53;7.97;;;4.63;;
20910;SDS011;10615;42.702;23.314;2022-08-07T05:46:54;5.05;;;4.60;;
20910;SDS011;10615;42.702;23.314;2022-08-07T05:47:57;5.38;;;4.80;;
20910;SDS011;10615;42.702;23.314;2022-08-07T05:48:59;5.50;;;5.00;;
20910;SDS011;10615;42.702;23.314;2022-08-07T05:49:59;5.40;;;4.70;;
20910;SDS011;10615;42.702;23.314;2022-08-07T05:51:01;5.80;;;5.22;;
20910;SDS011;10615;42.702;23.314;2022-08-07T05:52:03;5.38;;;4.97;;
20910;SDS011;10615;42.702;23.314;2022-08-07T05:53:05;5.55;;;5.05;;
20910;SDS011;10615;42.702;23.314;2022-08-07T05:54:06;5.28;;;4.88;;
20910;SDS011;10615;42.702;23.314;2022-08-07T05:55:06;5.45;;;4.95;;
20910;SDS011;10615;42.702;23.314;2022-08-07T05:56:08;5.63;;;4.97;;
20910;SDS011;10615;42.702;23.314;2022-08-07T05:57:11;5.10;;;4.70;;
20910;SDS011;10615;42.702;23.314;2022-08-07T05:58:13;5.53;;;4.97;;
20910;SDS011;10615;42.702;23.314;2022-08-07T05:59:16;6.20;;;5.13;;
20910;SDS011;10615;42.702;23.314;2022-08-07T06:00:18;6.15;;;4.75;;
20910;SDS011;10615;42.702;23.314;2022-08-07T06:01:20;6.40;;;4.80;;
20910;SDS011;10615;42.702;23.314;2022-08-07T06:02:22;5.35;;;4.90;;
20910;SDS011;10615;42.702;23.314;2022-08-07T06:03:26;4.95;;;4.55;;
20910;SDS011;10615;42.702;23.314;2022-08-07T06:04:30;5.40;;;4.93;;
20910;SDS011;10615;42.702;23.314;2022-08-07T06:05:33;5.38;;;4.88;;
20910;SDS011;10615;42.702;23.314;2022-08-07T06:06:33;5.68;;;5.18;;
20910;SDS011;10615;42.702;23.314;2022-08-07T06:07:35;6.00;;;4.93;;
20910;SDS011;10615;42.702;23.314;2022-08-07T06:08:36;5.63;;;5.03;;
20910;SDS011;10615;42.702;23.314;2022-08-07T06:09:40;5.40;;;5.00;;
20910;SDS011;10615;42.702;23.314;2022-08-07T06:10:41;5.40;;;4.90;;
20910;SDS011;10615;42.702;23.314;2022-08-07T06:11:43;7.70;;;4.63;;
20910;SDS011;10615;42.702;23.314;2022-08-07T06:12:44;5.80;;;5.05;;
20910;SDS011;10615;42.702;23.314;2022-08-07T06:13:45;5.90;;;4.75;;
20910;SDS011;10615;42.702;23.314;2022-08-07T06:14:46;5.60;;;5.00;;
20910;SDS011;10615;42.702;23.314;2022-08-07T06:15:48;6.05;;;5.20;;
20910;SDS011;10615;42.702;23.314;2022-08-07T06:16:49;5.88;;;5.38;;
20910;SDS011;10615;42.702;23.314;2022-08-07T06:17:51;5.40;;;4.90;;
20910;SDS011;10615;42.702;23.314;2022-08-07T06:18:53;6.90;;;6.20;;
20910;SDS011;10615;42.702;23.314;2022-08-07T06:19:54;5.47;;;4.97;;
20910;SDS011;10615;42.702;23.314;2022-08-07T06:20:56;5.47;;;4.97;;